Time;durP1;ratioP1;P1;durP2;ratioP2;P2;SDS_P1;SDS_P2;PMS_P1;PMS_P2;Temp;Humidity;BMP_temperature;BMP_pressure;BME280_temperature;BME280_humidity;BME280_pressure;Samples;Min_cycle;Max_cycle;Signal;HPM_P1;HPM_P2
2024/01/03 00:00:28;;;;;;;11.35;1.65;;;12.10;99.90;;;;;;5005557;28;20049;-62
2024/01/03 00:02:55;;;;;;;11.40;1.60;;;12.10;99.90;;;;;;5008069;28;20033;-65
2024/01/03 00:05:23;;;;;;;9.13;1.05;;;12.00;99.90;;;;;;5009101;28;20105;-62
2024/01/03 00:07:49;;;;;;;14.48;1.75;;;12.00;99.90;;;;;;5006603;28;20377;-61
2024/01/03 00:10:41;;;;;;;10.48;1.55;;;12.00;99.90;;;;;;5010757;28;20026;-62
2024/01/03 00:13:25;;;;;;;9.98;1.58;;;12.00;99.90;;;;;;5005898;28;20026;-62
2024/01/03 00:16:00;;;;;;;12.20;2.60;;;12.00;99.90;;;;;;5004109;28;20040;-62
2024/01/03 00:18:36;;;;;;;13.50;2.00;;;12.10;99.90;;;;;;5008430;28;20101;-62
2024/01/03 00:21:02;;;;;;;14.25;1.60;;;12.00;99.90;;;;;;5010109;28;20461;-63
2024/01/03 00:23:49;;;;;;;6.68;1.10;;;12.00;99.90;;;;;;5006566;28;20030;-60
2024/01/03 00:26:14;;;;;;;12.93;1.73;;;11.90;99.90;;;;;;5009150;28;20067;-62
2024/01/03 00:28:41;;;;;;;14.35;1.70;;;11.90;99.90;;;;;;5009049;28;20030;-62
2024/01/03 00:31:28;;;;;;;13.27;1.70;;;11.80;99.90;;;;;;5005634;28;20041;-62
2024/01/03 00:33:56;;;;;;;14.82;1.48;;;11.80;99.90;;;;;;4989228;28;20168;-63
2024/01/03 00:36:21;;;;;;;14.13;1.40;;;11.80;99.90;;;;;;5007260;28;20037;-62
2024/01/03 00:38:47;;;;;;;7.60;1.55;;;11.80;99.90;;;;;;5009741;28;20030;-60
2024/01/03 00:41:12;;;;;;;7.15;1.10;;;11.80;99.90;;;;;;5004280;28;20052;-62
2024/01/03 00:43:39;;;;;;;7.22;1.73;;;11.90;99.90;;;;;;5009269;28;20121;-62
2024/01/03 00:46:05;;;;;;;9.85;1.77;;;11.80;99.90;;;;;;5008114;28;20052;-62
2024/01/03 00:48:32;;;;;;;5.85;1.23;;;11.90;99.90;;;;;;5009595;28;20030;-63
2024/01/03 00:50:58;;;;;;;13.00;1.25;;;11.80;99.90;;;;;;5008621;28;20033;-62
2024/01/03 00:53:24;;;;;;;9.55;1.63;;;11.80;99.90;;;;;;5007753;28;20519;-62
2024/01/03 00:55:50;;;;;;;10.95;1.30;;;11.80;99.90;;;;;;5002333;28;20084;-62
2024/01/03 00:58:16;;;;;;;8.00;1.10;;;11.80;99.90;;;;;;5004188;28;20033;-61
2024/01/03 01:00:42;;;;;;;7.90;1.20;;;11.70;99.90;;;;;;5003203;28;20057;-60
2024/01/03 01:03:08;;;;;;;10.25;1.45;;;11.70;99.90;;;;;;5002884;28;20053;-61
2024/01/03 01:05:33;;;;;;;5.15;0.93;;;11.70;99.90;;;;;;5005771;28;20026;-62
2024/01/03 01:07:59;;;;;;;10.52;1.23;;;11.70;99.90;;;;;;5006496;28;20080;-62
2024/01/03 01:10:24;;;;;;;6.47;1.00;;;11.80;99.90;;;;;;5008195;28;20547;-61
2024/01/03 01:12:50;;;;;;;6.32;0.90;;;11.80;99.90;;;;;;5012312;28;20029;-61
2024/01/03 01:15:15;;;;;;;7.72;0.80;;;11.80;99.90;;;;;;5007270;28;20488;-63
2024/01/03 01:17:41;;;;;;;6.60;0.95;;;11.80;99.90;;;;;;5010328;28;20112;-61
2024/01/03 01:20:07;;;;;;;8.93;0.68;;;11.70;99.90;;;;;;5007452;28;20025;-61
2024/01/03 01:22:33;;;;;;;4.93;0.90;;;11.70;99.90;;;;;;5011848;28;20027;-61
2024/01/03 01:24:58;;;;;;;5.75;0.80;;;11.60;99.90;;;;;;4990081;28;20038;-61
2024/01/03 01:27:24;;;;;;;5.63;1.05;;;11.60;99.90;;;;;;4993012;28;20025;-61
2024/01/03 01:29:49;;;;;;;6.32;0.88;;;11.60;99.90;;;;;;5004666;28;20384;-62
2024/01/03 01:32:15;;;;;;;5.63;1.02;;;11.50;99.90;;;;;;5010750;28;20121;-63
2024/01/03 01:34:40;;;;;;;6.35;0.90;;;11.50;99.90;;;;;;5010808;28;20026;-59
2024/01/03 01:37:07;;;;;;;6.55;0.90;;;11.40;99.90;;;;;;5012147;28;20079;-62
2024/01/03 01:39:33;;;;;;;4.05;0.50;;;11.40;99.90;;;;;;5009635;28;20026;-64
2024/01/03 01:41:58;;;;;;;5.00;1.02;;;11.40;99.90;;;;;;5012338;28;20045;-62
2024/01/03 01:44:24;;;;;;;2.22;0.63;;;11.40;99.90;;;;;;5010003;28;20029;-63
2024/01/03 01:46:50;;;;;;;5.05;0.90;;;11.30;99.90;;;;;;4995534;28;20514;-64
2024/01/03 01:49:20;;;;;;;6.45;0.60;;;11.20;99.90;;;;;;5010660;28;20052;-63
2024/01/03 01:51:47;;;;;;;9.93;0.80;;;11.20;99.90;;;;;;4990605;28;20105;-62
2024/01/03 01:54:13;;;;;;;5.80;0.80;;;11.30;99.90;;;;;;5001293;28;20113;-63
2024/01/03 01:56:40;;;;;;;5.60;1.50;;;11.30;99.90;;;;;;5009404;28;20038;-65
2024/01/03 01:59:06;;;;;;;5.28;0.88;;;11.20;99.90;;;;;;5010703;28;20034;-64
2024/01/03 02:01:34;;;;;;;5.40;0.98;;;11.20;99.90;;;;;;5010656;28;20391;-64
2024/01/03 02:04:03;;;;;;;5.18;0.98;;;11.20;99.90;;;;;;5010831;28;20143;-64
2024/01/03 02:06:28;;;;;;;10.73;1.30;;;11.10;99.90;;;;;;5010525;28;20021;-64
2024/01/03 02:08:54;;;;;;;12.63;1.08;;;11.10;99.90;;;;;;5005469;28;20417;-62
2024/01/03 02:11:20;;;;;;;7.15;0.80;;;11.20;99.90;;;;;;5012364;28;20018;-63
2024/01/03 02:13:46;;;;;;;5.20;0.82;;;11.20;99.90;;;;;;4991809;28;20030;-62
2024/01/03 02:16:37;;;;;;;6.03;0.90;;;11.20;99.90;;;;;;5011847;28;20030;-61
2024/01/03 02:19:04;;;;;;;3.10;0.98;;;11.20;99.90;;;;;;5009197;28;20377;-63
2024/01/03 02:21:30;;;;;;;9.38;0.95;;;11.10;99.90;;;;;;5008561;28;20021;-62
2024/01/03 02:23:56;;;;;;;5.85;0.85;;;11.10;99.90;;;;;;5011223;28;20045;-63
2024/01/03 02:26:21;;;;;;;16.20;1.90;;;11.10;99.90;;;;;;5010681;28;20462;-63
2024/01/03 02:28:47;;;;;;;5.55;1.10;;;11.10;99.90;;;;;;5009844;28;20488;-62
2024/01/03 02:31:12;;;;;;;6.82;1.15;;;11.20;99.90;;;;;;5010061;28;20034;-61
2024/01/03 02:33:38;;;;;;;14.40;1.00;;;11.10;99.90;;;;;;5011969;28;20491;-63
2024/01/03 02:36:04;;;;;;;4.72;0.90;;;11.10;99.90;;;;;;5009272;28;20029;-63
2024/01/03 02:38:29;;;;;;;15.00;2.00;;;11.10;99.90;;;;;;5011730;28;20034;-63
2024/01/03 02:40:55;;;;;;;8.23;1.25;;;11.00;99.90;;;;;;5009360;28;20100;-63
2024/01/03 02:43:20;;;;;;;10.00;1.15;;;11.10;99.90;;;;;;5000404;28;20034;-63
2024/01/03 02:45:46;;;;;;;8.65;1.38;;;11.10;99.90;;;;;;5007161;28;20029;-63
2024/01/03 02:48:12;;;;;;;12.82;1.13;;;11.30;99.90;;;;;;5007263;28;20069;-63
2024/01/03 02:50:37;;;;;;;3.95;1.05;;;11.20;99.90;;;;;;5004430;28;20030;-62
2024/01/03 02:53:03;;;;;;;9.32;1.00;;;11.20;99.90;;;;;;5004052;28;20503;-64
2024/01/03 02:55:29;;;;;;;5.63;0.88;;;11.30;99.90;;;;;;5009478;28;20117;-62
2024/01/03 02:57:54;;;;;;;6.43;0.73;;;11.30;99.90;;;;;;5005674;28;20038;-63
2024/01/03 03:00:20;;;;;;;12.13;1.15;;;11.40;99.90;;;;;;5007210;28;20061;-62
2024/01/03 03:02:45;;;;;;;7.55;0.93;;;11.30;99.90;;;;;;4992472;28;20075;-60
2024/01/03 03:05:11;;;;;;;4.53;1.10;;;11.30;99.90;;;;;;5007042;28;20036;-62
2024/01/03 03:07:37;;;;;;;9.18;1.65;;;11.20;99.90;;;;;;5005480;28;20530;-62
2024/01/03 03:10:03;;;;;;;7.53;0.90;;;11.20;99.90;;;;;;5008814;28;20044;-63
2024/01/03 03:12:28;;;;;;;7.85;1.10;;;11.20;99.90;;;;;;5011474;28;20484;-62
2024/01/03 03:14:54;;;;;;;4.82;0.68;;;11.10;99.90;;;;;;5007444;28;20435;-62
2024/01/03 03:17:19;;;;;;;10.27;1.25;;;11.10;99.90;;;;;;5009808;28;20092;-63
2024/01/03 03:19:45;;;;;;;4.28;0.80;;;11.10;99.90;;;;;;5004419;28;20492;-60
2024/01/03 03:22:11;;;;;;;5.47;1.15;;;11.10;99.90;;;;;;5004912;28;20381;-61
2024/01/03 03:24:36;;;;;;;5.85;0.90;;;11.00;99.90;;;;;;5008555;28;20022;-59
2024/01/03 03:27:02;;;;;;;3.25;0.75;;;10.90;99.90;;;;;;5000370;28;20065;-62
2024/01/03 03:29:27;;;;;;;10.50;1.52;;;10.90;99.90;;;;;;4999739;28;20485;-62
2024/01/03 03:31:53;;;;;;;9.40;1.00;;;10.90;99.90;;;;;;5001633;28;20203;-61
2024/01/03 03:34:18;;;;;;;7.97;1.10;;;10.80;99.90;;;;;;5009662;28;20439;-62
2024/01/03 03:36:44;;;;;;;10.75;1.15;;;10.80;99.90;;;;;;5007544;28;20022;-61
2024/01/03 03:39:10;;;;;;;5.45;1.10;;;10.80;99.90;;;;;;5010600;28;20080;-60
2024/01/03 03:41:37;;;;;;;8.05;1.33;;;10.80;99.90;;;;;;5006261;28;20120;-60
2024/01/03 03:44:02;;;;;;;12.10;1.60;;;10.80;99.90;;;;;;5009339;28;20366;-62
2024/01/03 03:46:28;;;;;;;8.65;1.48;;;10.80;99.90;;;;;;5006984;28;20087;-62
2024/01/03 03:48:54;;;;;;;11.95;1.48;;;10.80;99.90;;;;;;5008156;28;20038;-61
2024/01/03 03:51:19;;;;;;;11.25;2.05;;;10.80;99.90;;;;;;5002522;28;20025;-60
2024/01/03 03:53:45;;;;;;;9.48;1.40;;;10.90;99.90;;;;;;5000202;28;20500;-63
2024/01/03 03:56:23;;;;;;;13.50;1.80;;;10.90;99.90;;;;;;4993563;28;20072;-62
2024/01/03 03:58:49;;;;;;;12.55;1.50;;;10.90;99.90;;;;;;5005639;28;20057;-62
2024/01/03 04:01:15;;;;;;;16.83;1.95;;;10.90;99.90;;;;;;5001368;28;20054;-63
2024/01/03 04:03:40;;;;;;;14.95;1.52;;;10.90;99.90;;;;;;5007364;28;20034;-63
2024/01/03 04:06:06;;;;;;;11.65;1.55;;;10.90;99.90;;;;;;5003733;28;20486;-63
2024/01/03 04:08:31;;;;;;;15.48;1.75;;;10.90;99.90;;;;;;5008042;28;20030;-62
2024/01/03 04:10:57;;;;;;;9.60;1.23;;;10.80;99.90;;;;;;5006676;28;20018;-62
2024/01/03 04:13:22;;;;;;;15.73;1.83;;;10.90;99.90;;;;;;5003028;28;20025;-62
2024/01/03 04:15:48;;;;;;;22.60;1.85;;;10.80;99.90;;;;;;5008244;28;20389;-62
2024/01/03 04:18:14;;;;;;;12.18;1.88;;;10.80;99.90;;;;;;5005437;28;20029;-63
2024/01/03 04:20:39;;;;;;;14.57;2.00;;;10.80;99.90;;;;;;5002807;28;20034;-59
2024/01/03 04:23:05;;;;;;;13.85;1.65;;;10.80;99.90;;;;;;5004183;28;20026;-62
2024/01/03 04:25:30;;;;;;;11.18;1.38;;;10.80;99.90;;;;;;5005746;28;20381;-61
2024/01/03 04:27:56;;;;;;;9.32;1.30;;;10.70;99.90;;;;;;5001815;28;20026;-62
2024/01/03 04:30:21;;;;;;;19.92;2.05;;;10.70;99.90;;;;;;5001798;28;20053;-62
2024/01/03 04:32:47;;;;;;;11.68;1.70;;;10.70;99.90;;;;;;5001481;28;20105;-63
2024/01/03 04:35:13;;;;;;;7.43;1.88;;;10.70;99.90;;;;;;5005559;28;20040;-62
2024/01/03 04:37:38;;;;;;;10.20;1.13;;;10.80;99.90;;;;;;5000360;28;20275;-62
2024/01/03 04:40:04;;;;;;;10.20;1.95;;;10.80;99.90;;;;;;5008502;28;20439;-63
2024/01/03 04:42:30;;;;;;;17.63;2.47;;;10.70;99.90;;;;;;5003458;28;20459;-64
2024/01/03 04:44:55;;;;;;;20.33;2.15;;;10.80;99.90;;;;;;4999225;28;20038;-63
2024/01/03 04:47:21;;;;;;;13.68;1.80;;;10.90;99.90;;;;;;4983542;28;20723;-63
2024/01/03 04:49:47;;;;;;;9.27;1.75;;;11.00;99.90;;;;;;4995881;28;20022;-63
2024/01/03 04:52:13;;;;;;;11.75;1.92;;;10.90;99.90;;;;;;5003925;28;20034;-63
2024/01/03 04:54:38;;;;;;;12.25;1.73;;;11.00;99.90;;;;;;5006392;28;20440;-62
2024/01/03 04:57:04;;;;;;;18.45;2.13;;;10.90;99.90;;;;;;5002747;28;20026;-63
2024/01/03 04:59:29;;;;;;;21.52;1.77;;;11.00;99.90;;;;;;5001208;28;20041;-61
2024/01/03 05:01:55;;;;;;;3.63;1.13;;;11.00;99.90;;;;;;5005042;28;20025;-60
2024/01/03 05:04:20;;;;;;;11.50;1.95;;;11.00;99.90;;;;;;5003120;28;20027;-63
2024/01/03 05:06:46;;;;;;;12.77;1.50;;;11.10;99.90;;;;;;5001263;28;20053;-62
2024/01/03 05:09:12;;;;;;;9.60;1.73;;;11.00;99.90;;;;;;5007534;28;20034;-62
2024/01/03 05:11:37;;;;;;;10.80;1.85;;;11.00;99.90;;;;;;5005992;28;20097;-63
2024/01/03 05:14:03;;;;;;;7.38;1.13;;;11.10;99.90;;;;;;5003608;28;20049;-64
2024/01/03 05:16:29;;;;;;;12.93;1.60;;;11.10;99.90;;;;;;5004681;28;20041;-63
2024/01/03 05:18:54;;;;;;;11.43;1.38;;;11.10;99.90;;;;;;5006829;28;20030;-63
2024/01/03 05:21:20;;;;;;;16.40;2.08;;;11.20;99.90;;;;;;5006629;28;20123;-61
2024/01/03 05:23:45;;;;;;;10.05;2.78;;;11.10;99.90;;;;;;4996777;28;20069;-62
2024/01/03 05:26:11;;;;;;;10.60;1.88;;;11.10;99.90;;;;;;5003362;28;20054;-62
2024/01/03 05:28:36;;;;;;;19.88;2.47;;;11.10;99.90;;;;;;5006930;28;20042;-62
2024/01/03 05:31:02;;;;;;;10.95;2.42;;;11.10;99.90;;;;;;5003672;28;20026;-62
2024/01/03 05:33:27;;;;;;;15.02;2.40;;;11.20;99.90;;;;;;5006666;28;20106;-60
2024/01/03 05:35:53;;;;;;;24.45;1.50;;;11.20;99.90;;;;;;5003728;28;20034;-62
2024/01/03 05:38:20;;;;;;;19.20;2.53;;;11.20;99.90;;;;;;5001473;28;20157;-61
2024/01/03 05:40:46;;;;;;;20.20;2.88;;;11.20;99.90;;;;;;5007030;28;20403;-64
2024/01/03 05:43:12;;;;;;;12.32;1.98;;;11.40;99.90;;;;;;4999078;28;20029;-62
2024/01/03 05:45:38;;;;;;;21.80;2.60;;;11.40;99.90;;;;;;5001304;28;20108;-61
2024/01/03 05:48:04;;;;;;;10.23;2.28;;;11.30;99.90;;;;;;5003766;28;20125;-61
2024/01/03 05:50:29;;;;;;;15.80;1.88;;;11.30;99.90;;;;;;5006370;28;20053;-61
2024/01/03 05:52:55;;;;;;;18.83;2.63;;;11.40;99.90;;;;;;5004972;28;20034;-62
2024/01/03 05:55:20;;;;;;;11.88;2.28;;;11.30;99.90;;;;;;5007291;28;20117;-60
2024/01/03 05:57:46;;;;;;;12.77;2.95;;;11.30;99.90;;;;;;5006474;28;20101;-63
2024/01/03 06:00:13;;;;;;;23.38;2.58;;;11.30;99.90;;;;;;4993345;28;20034;-61
2024/01/03 06:02:38;;;;;;;23.75;2.28;;;11.40;99.90;;;;;;5007264;28;20026;-61
2024/01/03 06:05:05;;;;;;;21.48;2.92;;;11.30;99.90;;;;;;5010285;28;20036;-62
2024/01/03 06:07:31;;;;;;;16.13;2.03;;;11.30;99.90;;;;;;5007551;28;20108;-62
2024/01/03 06:09:56;;;;;;;28.33;2.50;;;11.40;99.90;;;;;;5007845;28;20112;-62
2024/01/03 06:12:23;;;;;;;12.00;1.92;;;11.50;99.90;;;;;;5006104;28;20101;-62
2024/01/03 06:14:49;;;;;;;14.68;2.40;;;11.40;99.90;;;;;;5007645;28;20384;-62
2024/01/03 06:17:14;;;;;;;14.93;2.00;;;11.40;99.90;;;;;;5004157;28;20037;-63
2024/01/03 06:19:40;;;;;;;17.83;2.75;;;11.50;99.90;;;;;;5010020;28;20053;-63
2024/01/03 06:22:05;;;;;;;17.80;1.90;;;11.40;99.90;;;;;;5006160;28;20034;-62
2024/01/03 06:24:31;;;;;;;19.25;2.75;;;11.50;99.90;;;;;;5009580;28;20037;-63
2024/01/03 06:26:56;;;;;;;18.38;2.05;;;11.40;99.90;;;;;;5006209;28;20034;-64
2024/01/03 06:29:22;;;;;;;17.70;2.78;;;11.50;99.90;;;;;;5007215;28;20040;-62
2024/01/03 06:31:48;;;;;;;13.35;2.03;;;11.50;99.90;;;;;;5006982;28;20026;-62
2024/01/03 06:34:13;;;;;;;28.42;3.10;;;11.50;99.90;;;;;;5011377;28;20029;-63
2024/01/03 06:36:39;;;;;;;15.88;2.45;;;11.50;99.90;;;;;;5006179;28;20025;-62
2024/01/03 06:39:04;;;;;;;16.23;1.92;;;11.60;99.90;;;;;;5005394;28;20034;-63
2024/01/03 06:41:30;;;;;;;23.88;2.13;;;11.60;99.90;;;;;;5002902;28;20029;-61
2024/01/03 06:43:55;;;;;;;19.23;2.45;;;11.60;99.90;;;;;;5007167;28;20064;-64
2024/01/03 06:46:26;;;;;;;15.73;2.08;;;11.60;99.90;;;;;;5010186;28;20057;-61
2024/01/03 06:48:51;;;;;;;21.27;2.80;;;11.70;99.90;;;;;;5004847;28;20080;-62
2024/01/03 06:51:20;;;;;;;24.95;2.53;;;11.70;99.90;;;;;;5009897;28;20030;-63
2024/01/03 06:53:46;;;;;;;13.85;2.45;;;11.70;99.90;;;;;;5005437;28;20653;-61
2024/01/03 06:56:11;;;;;;;15.27;2.78;;;11.60;99.90;;;;;;5009100;28;20029;-60
2024/01/03 06:58:37;;;;;;;19.33;2.42;;;11.50;99.90;;;;;;5007068;28;20046;-63
2024/01/03 07:01:02;;;;;;;19.83;2.78;;;11.60;99.90;;;;;;5009968;28;20077;-63
2024/01/03 07:03:28;;;;;;;13.05;1.85;;;11.60;99.90;;;;;;5004523;28;20409;-63
2024/01/03 07:05:53;;;;;;;25.50;2.08;;;11.50;99.90;;;;;;5005638;28;20065;-61
2024/01/03 07:08:19;;;;;;;13.02;2.28;;;11.50;99.90;;;;;;5008781;28;20035;-62
2024/01/03 07:10:44;;;;;;;11.65;1.40;;;11.60;99.90;;;;;;5008851;28;20037;-63
2024/01/03 07:13:10;;;;;;;9.18;1.83;;;11.60;99.90;;;;;;5005919;28;20384;-60
2024/01/03 07:15:36;;;;;;;16.33;1.88;;;11.70;99.90;;;;;;5009963;28;20018;-62
2024/01/03 07:18:02;;;;;;;10.52;1.52;;;11.60;99.90;;;;;;5005943;28;20507;-60
2024/01/03 07:20:27;;;;;;;15.93;1.75;;;11.60;99.90;;;;;;5008553;28;20499;-62
2024/01/03 07:22:53;;;;;;;12.70;1.45;;;11.70;99.90;;;;;;5007572;28;20053;-62
2024/01/03 07:25:18;;;;;;;14.40;2.13;;;11.80;99.90;;;;;;4989256;28;20504;-62
2024/01/03 07:27:44;;;;;;;9.38;1.63;;;11.80;99.90;;;;;;5003293;28;20500;-62
2024/01/03 07:30:10;;;;;;;11.50;1.55;;;11.80;99.90;;;;;;4991441;28;20369;-60
2024/01/03 07:32:37;;;;;;;8.02;1.02;;;11.80;99.90;;;;;;5008239;28;20036;-63
2024/01/03 07:35:02;;;;;;;10.80;1.23;;;11.70;99.90;;;;;;5004334;28;20040;-61
2024/01/03 07:37:28;;;;;;;9.23;2.08;;;11.60;99.90;;;;;;5007388;28;20022;-63
2024/01/03 07:39:53;;;;;;;9.77;1.50;;;11.50;99.90;;;;;;5005707;28;20046;-59
2024/01/03 07:42:19;;;;;;;11.02;2.25;;;11.40;99.90;;;;;;5002902;28;20036;-62
2024/01/03 07:44:44;;;;;;;7.25;1.10;;;11.40;99.90;;;;;;5004487;28;20103;-60
2024/01/03 07:47:11;;;;;;;7.80;1.08;;;11.30;99.90;;;;;;5001917;28;20088;-62
2024/01/03 07:49:37;;;;;;;12.60;1.40;;;11.10;99.90;;;;;;5005529;28;20030;-62
2024/01/03 07:52:04;;;;;;;14.45;1.30;;;11.10;99.90;;;;;;5007461;28;20452;-64
2024/01/03 07:54:29;;;;;;;6.18;1.05;;;11.00;99.90;;;;;;5010025;28;20034;-63
2024/01/03 07:56:56;;;;;;;7.88;1.33;;;11.00;99.90;;;;;;5004583;28;20083;-62
2024/01/03 07:59:22;;;;;;;15.30;1.83;;;11.00;99.90;;;;;;5003292;28;20029;-62
2024/01/03 08:01:47;;;;;;;15.40;1.92;;;11.00;99.90;;;;;;5007943;28;20036;-64
2024/01/03 08:04:16;;;;;;;12.77;2.08;;;11.10;99.90;;;;;;5005956;28;20069;-62
2024/01/03 08:06:42;;;;;;;13.35;1.90;;;11.10;99.90;;;;;;5006113;28;20466;-61
2024/01/03 08:09:07;;;;;;;12.45;2.20;;;11.20;99.90;;;;;;5001478;28;20054;-62
2024/01/03 08:11:33;;;;;;;11.48;1.80;;;11.30;99.90;;;;;;5004255;28;20491;-61
2024/01/03 08:13:59;;;;;;;13.02;1.95;;;11.30;99.90;;;;;;5005470;28;20041;-56
2024/01/03 08:16:24;;;;;;;6.13;1.20;;;11.30;99.90;;;;;;5004032;28;20068;-57
2024/01/03 08:18:50;;;;;;;14.50;1.83;;;11.30;99.90;;;;;;5002511;28;20493;-56
2024/01/03 08:21:16;;;;;;;8.60;1.60;;;11.20;99.90;;;;;;5004408;28;20037;-56
2024/01/03 08:23:42;;;;;;;12.30;1.90;;;11.30;99.90;;;;;;5002408;28;20034;-56
2024/01/03 08:26:09;;;;;;;15.27;2.08;;;11.20;99.90;;;;;;5002912;28;20078;-54
2024/01/03 08:28:40;;;;;;;16.20;2.00;;;11.10;99.90;;;;;;5007343;28;20500;-52
2024/01/03 08:31:13;;;;;;;15.27;1.75;;;11.20;99.90;;;;;;5003678;28;20072;-54
2024/01/03 08:33:39;;;;;;;13.38;1.73;;;11.20;99.90;;;;;;5000972;28;20503;-56
2024/01/03 08:36:06;;;;;;;14.52;1.60;;;11.20;99.90;;;;;;5006587;28;20031;-53
2024/01/03 08:38:32;;;;;;;10.90;1.65;;;11.20;99.90;;;;;;5008675;28;20018;-54
2024/01/03 08:40:57;;;;;;;11.95;1.58;;;11.20;99.90;;;;;;5002487;28;20038;-57
2024/01/03 08:43:23;;;;;;;10.15;1.73;;;11.20;99.90;;;;;;5008216;28;20404;-57
2024/01/03 08:45:48;;;;;;;9.18;1.05;;;11.20;99.90;;;;;;5007562;28;20424;-55
2024/01/03 08:48:14;;;;;;;6.88;0.88;;;11.20;99.90;;;;;;5004562;28;20026;-56
2024/01/03 08:50:40;;;;;;;2.78;0.70;;;11.00;99.90;;;;;;5007246;28;20030;-53
2024/01/03 08:53:06;;;;;;;5.82;0.63;;;10.90;99.90;;;;;;4998740;28;20382;-54
2024/01/03 08:55:31;;;;;;;3.88;0.47;;;10.70;99.90;;;;;;5006077;28;20029;-54
2024/01/03 08:57:58;;;;;;;2.38;0.95;;;10.50;99.90;;;;;;5004796;28;20032;-54
2024/01/03 09:00:24;;;;;;;3.67;0.57;;;10.40;99.90;;;;;;5004708;28;20038;-53
2024/01/03 09:02:50;;;;;;;1.70;0.50;;;10.30;99.90;;;;;;5003210;28;20033;-55
2024/01/03 09:05:16;;;;;;;9.20;0.80;;;10.30;99.90;;;;;;5003332;28;20432;-55
2024/01/03 09:07:44;;;;;;;7.55;0.80;;;10.20;99.90;;;;;;5007519;28;20046;-56
2024/01/03 09:10:10;;;;;;;11.48;1.35;;;10.10;99.90;;;;;;5001462;28;20029;-57
2024/01/03 09:12:35;;;;;;;8.82;1.33;;;10.20;99.90;;;;;;5003719;28;20108;-54
2024/01/03 09:15:01;;;;;;;10.63;1.38;;;10.20;99.90;;;;;;5000376;28;20120;-54
2024/01/03 09:17:26;;;;;;;6.10;1.17;;;10.20;99.90;;;;;;4999628;28;20504;-56
2024/01/03 09:19:52;;;;;;;13.70;1.58;;;10.20;99.90;;;;;;4998669;28;20029;-56
2024/01/03 09:22:17;;;;;;;12.20;1.33;;;10.20;99.90;;;;;;4999822;28;20062;-56
2024/01/03 09:24:43;;;;;;;9.85;1.17;;;10.20;99.90;;;;;;5003369;28;20034;-57
2024/01/03 09:27:08;;;;;;;10.25;1.30;;;10.20;99.90;;;;;;5003598;28;20026;-55
2024/01/03 09:29:34;;;;;;;11.40;1.55;;;10.30;99.90;;;;;;4985043;28;20532;-54
2024/01/03 09:32:00;;;;;;;8.40;1.65;;;10.30;99.90;;;;;;5009601;28;20092;-54
2024/01/03 09:34:26;;;;;;;10.27;1.65;;;10.40;99.90;;;;;;5008421;28;20104;-57
2024/01/03 09:36:53;;;;;;;10.13;2.05;;;10.40;99.90;;;;;;5007726;28;20113;-57
2024/01/03 09:39:19;;;;;;;9.50;1.50;;;10.50;99.90;;;;;;5009579;28;20038;-55
2024/01/03 09:41:46;;;;;;;11.25;1.70;;;10.60;99.90;;;;;;5010817;28;20133;-54
2024/01/03 09:44:12;;;;;;;18.70;2.17;;;10.70;99.90;;;;;;5006968;28;20293;-54
2024/01/03 09:46:37;;;;;;;17.48;1.63;;;10.80;99.90;;;;;;5008703;28;20069;-54
2024/01/03 09:49:03;;;;;;;15.70;1.90;;;11.00;99.90;;;;;;4993454;28;20124;-54
2024/01/03 09:51:29;;;;;;;16.10;1.50;;;11.10;99.90;;;;;;4982113;28;20053;-53
2024/01/03 09:53:56;;;;;;;12.13;1.77;;;11.10;99.90;;;;;;5002810;28;20440;-56
2024/01/03 09:56:22;;;;;;;17.02;2.28;;;11.30;99.90;;;;;;5008777;28;20022;-57
2024/01/03 09:58:48;;;;;;;14.45;2.45;;;11.40;99.90;;;;;;5006748;28;20041;-54
2024/01/03 10:01:13;;;;;;;23.52;2.50;;;11.50;99.90;;;;;;5007243;28;20040;-57
2024/01/03 10:03:39;;;;;;;22.30;2.50;;;11.50;99.90;;;;;;5007162;28;20030;-56
2024/01/03 10:06:13;;;;;;;13.88;2.90;;;11.60;99.90;;;;;;5006796;28;20121;-56
2024/01/03 10:08:39;;;;;;;20.10;2.47;;;11.70;99.90;;;;;;5007646;28;20022;-56
2024/01/03 10:11:19;;;;;;;24.75;1.90;;;11.70;99.90;;;;;;5005706;28;20022;-56
2024/01/03 10:13:45;;;;;;;16.35;2.30;;;11.70;99.90;;;;;;5011134;28;20026;-55
2024/01/03 10:16:11;;;;;;;19.58;2.42;;;11.80;99.90;;;;;;5007115;28;20152;-55
2024/01/03 10:18:37;;;;;;;21.60;2.10;;;11.90;99.90;;;;;;5007379;28;20048;-56
2024/01/03 10:21:12;;;;;;;11.20;2.25;;;12.00;99.90;;;;;;5005841;28;20049;-55
2024/01/03 10:23:38;;;;;;;13.18;2.70;;;12.00;99.90;;;;;;5010997;28;20034;-54
2024/01/03 10:26:04;;;;;;;13.98;2.22;;;12.00;99.90;;;;;;5009617;28;20030;-57
2024/01/03 10:28:29;;;;;;;16.48;2.47;;;11.90;99.90;;;;;;5010410;28;20109;-55
2024/01/03 10:30:55;;;;;;;18.77;2.00;;;11.90;99.90;;;;;;5006249;28;20034;-55
2024/01/03 10:33:21;;;;;;;9.63;1.50;;;11.90;99.90;;;;;;5007354;28;20058;-54
2024/01/03 10:35:46;;;;;;;11.00;1.50;;;11.90;99.90;;;;;;5006066;28;20080;-56
2024/01/03 10:38:15;;;;;;;15.43;1.95;;;11.90;99.90;;;;;;5003498;28;21470;-57
2024/01/03 10:40:41;;;;;;;10.40;1.67;;;11.90;99.90;;;;;;5007024;28;20373;-55
2024/01/03 10:43:10;;;;;;;13.32;1.98;;;11.80;99.90;;;;;;4989130;28;20037;-57
2024/01/03 10:45:36;;;;;;;15.82;1.73;;;11.70;99.90;;;;;;5006128;28;20037;-56
2024/01/03 10:48:03;;;;;;;14.95;2.33;;;11.70;99.90;;;;;;5009276;28;20129;-54
2024/01/03 10:50:28;;;;;;;12.55;1.70;;;11.80;99.90;;;;;;5001203;28;20033;-57
2024/01/03 10:52:58;;;;;;;7.80;1.50;;;12.10;99.90;;;;;;5007056;28;20026;-58
2024/01/03 10:55:37;;;;;;;12.25;2.00;;;12.10;99.90;;;;;;5008681;28;20381;-57
2024/01/03 10:58:12;;;;;;;18.05;1.95;;;12.20;99.90;;;;;;5009277;28;20026;-52
2024/01/03 11:00:52;;;;;;;16.77;1.98;;;12.00;99.90;;;;;;5005817;28;20030;-55
2024/01/03 11:03:20;;;;;;;22.13;2.63;;;12.00;99.90;;;;;;5005043;28;20037;-56
2024/01/03 11:06:06;;;;;;;10.48;2.10;;;11.90;99.90;;;;;;5005704;28;20033;-56
2024/01/03 11:09:04;;;;;;;11.20;1.35;;;11.90;99.90;;;;;;5005826;28;20523;-57
2024/01/03 11:11:31;;;;;;;16.08;2.20;;;11.90;99.90;;;;;;4959816;28;20033;-57
2024/01/03 11:13:57;;;;;;;13.70;1.75;;;11.90;99.90;;;;;;5009587;28;20381;-56
2024/01/03 11:16:37;;;;;;;13.85;1.95;;;12.00;99.90;;;;;;5005424;28;20026;-56
2024/01/03 11:19:07;;;;;;;15.60;1.70;;;12.00;99.90;;;;;;5004943;28;20053;-57
2024/01/03 11:21:35;;;;;;;14.23;1.73;;;12.00;99.90;;;;;;5008916;28;20030;-57
2024/01/03 11:24:21;;;;;;;6.88;1.40;;;12.00;99.90;;;;;;5006643;28;20018;-55
2024/01/03 11:26:55;;;;;;;13.25;1.80;;;11.90;99.90;;;;;;4995728;28;20038;-57
2024/01/03 11:29:38;;;;;;;8.25;1.40;;;12.00;99.90;;;;;;5003599;28;20022;-57
2024/01/03 11:32:08;;;;;;;15.02;1.90;;;11.90;99.90;;;;;;5004613;28;20404;-57
2024/01/03 11:34:42;;;;;;;12.93;1.67;;;11.90;99.90;;;;;;5004907;28;20037;-54
2024/01/03 11:37:30;;;;;;;10.60;1.92;;;11.90;99.90;;;;;;5008090;28;20033;-56
2024/01/03 11:39:57;;;;;;;16.08;1.45;;;11.80;99.90;;;;;;4990112;28;20044;-57
2024/01/03 11:42:28;;;;;;;13.30;2.20;;;11.80;99.90;;;;;;5001349;28;20022;-55
2024/01/03 11:45:04;;;;;;;9.70;1.83;;;11.80;99.90;;;;;;5001363;28;20080;-57
2024/01/03 11:47:38;;;;;;;16.70;1.92;;;11.90;99.90;;;;;;5005059;28;20022;-57
2024/01/03 11:50:04;;;;;;;11.20;1.70;;;12.10;99.90;;;;;;5006016;28;20064;-54
2024/01/03 11:52:33;;;;;;;10.55;1.95;;;12.10;99.90;;;;;;5003745;28;20034;-56
2024/01/03 11:55:10;;;;;;;17.58;2.28;;;12.20;99.90;;;;;;5005448;28;20037;-57
2024/01/03 11:57:47;;;;;;;14.23;2.15;;;12.10;99.90;;;;;;5005703;28;20088;-57
2024/01/03 12:00:16;;;;;;;17.85;2.53;;;12.00;99.90;;;;;;5004490;28;20042;-57
2024/01/03 12:02:55;;;;;;;14.43;1.98;;;12.10;99.90;;;;;;5006359;28;20040;-54
2024/01/03 12:05:25;;;;;;;16.08;2.00;;;12.10;99.90;;;;;;5002940;28;20120;-56
2024/01/03 12:07:53;;;;;;;10.43;2.03;;;12.30;99.90;;;;;;5005378;28;20341;-56
2024/01/03 12:10:19;;;;;;;16.70;2.45;;;12.50;99.90;;;;;;5005098;28;20032;-56
2024/01/03 12:12:46;;;;;;;17.02;2.25;;;12.50;99.90;;;;;;5001110;28;20018;-56
2024/01/03 12:15:27;;;;;;;11.90;2.08;;;12.60;99.90;;;;;;5004866;28;20396;-57
2024/01/03 12:17:53;;;;;;;15.98;2.33;;;12.60;99.90;;;;;;5002693;28;20038;-57
2024/01/03 12:20:20;;;;;;;12.68;1.83;;;12.50;99.90;;;;;;5000929;28;20030;-57
2024/01/03 12:22:47;;;;;;;12.27;2.20;;;12.50;99.90;;;;;;5007158;28;20066;-57
2024/01/03 12:25:24;;;;;;;22.08;2.70;;;12.50;99.90;;;;;;5004793;28;20030;-57
2024/01/03 12:27:55;;;;;;;14.63;2.38;;;12.50;99.90;;;;;;5001969;28;20073;-56
2024/01/03 12:30:21;;;;;;;16.33;2.10;;;12.50;99.90;;;;;;5003494;28;20105;-57
2024/01/03 12:32:47;;;;;;;7.35;2.05;;;12.50;99.90;;;;;;4999531;28;20101;-54
2024/01/03 12:35:14;;;;;;;15.43;2.28;;;12.50;99.90;;;;;;5002437;28;20093;-57
2024/01/03 12:37:43;;;;;;;12.77;2.05;;;12.60;99.90;;;;;;5003498;28;20452;-56
2024/01/03 12:40:18;;;;;;;15.75;2.05;;;12.70;99.90;;;;;;5007237;28;20075;-55